This demonstration page uses our WeatherBlox Daily Observations layout. Learn more.

Left ArrowRight Arrow

36.19886, -115.1175

Hourly Observations for August 20, 2016

Temp ( °F °C ) Dew Point ( °F °C ) Humidity (%) Winds ( mph kmh ) Pressure ( in mb ) Visibility ( mi km ) Precip ( " mm )
12:53 am 00:53 Clear 88 31.1 41 5 19 19 NNW 10 17 29.8 1009 10 16.0934 0 0
1:53 am 01:53 Clear 86 30 41 5 20 20 VRB 3 6 29.8 1009 10 16.0934 0 0
2:53 am 02:53 Clear 84 28.9 43 6.1 24 24 NW 3 6 29.8 1009 10 16.0934 0 0
3:53 am 03:53 Clear 82 27.8 42 5.6 24 24 N 5 7 29.8 1009 10 16.0934 0 0
4:53 am 04:53 Clear 80 26.7 43 6.1 27 27 N 3 6 29.8 1009 10 16.0934 0 0
5:53 am 05:53 Clear 79 26.1 43 6.1 28 28 Calm 29.83 1010 10 16.0934 0 0
6:53 am 06:53 Sunny 80 26.7 45 7.2 29 29 N 7 11 29.84 1011 10 16.0934 0 0
7:53 am 07:53 Sunny 82 27.8 42 5.6 24 24 NNW 3 6 29.85 1011 10 16.0934 0 0
8:53 am 08:53 Sunny 87 30.6 42 5.6 21 21 NE 3 6 29.86 1011 10 16.0934 0 0
9:53 am 09:53 Sunny 89 31.7 41 5 19 19 Calm 29.86 1011 10 16.0934 0 0
10:53 am 10:53 Sunny 92 33.3 41 5 17 17 Calm 29.86 1011 10 16.0934 0 0
11:53 am 11:53 Sunny 96 35.6 39 3.9 14 14 Calm 29.83 1010 10 16.0934 0 0
12:53 pm 12:53 Sunny 100 37.8 40 4.4 13 13 SSE 8 13 29.81 1009 10 16.0934 0 0
1:53 pm 13:53 Sunny 101 38.3 39 3.9 12 12 WSW 6 9 29.78 1009 10 16.0934 0 0
2:53 pm 14:53 Sunny 102 38.9 38 3.3 11 11 SE 6 9 29.75 1008 10 16.0934 0 0
3:53 pm 15:53 Sunny 104 40 38 3.3 10 10 VRB 5 7 29.72 1006 10 16.0934 0 0
4:53 pm 16:53 Sunny 103 39.4 38 3.3 11 11 NNW 5 7 29.7 1006 10 16.0934 0 0
5:53 pm 17:53 Sunny 103 39.4 38 3.3 11 11 SSW 10 17 29.69 1005 10 16.0934 0 0
6:53 pm 18:53 Sunny 101 38.3 37 2.8 11 11 WSW 14 22 29.68 1005 10 16.0934 0 0
7:53 pm 19:53 Clear 99 37.2 37 2.8 12 12 WSW 12 19 29.7 1006 10 16.0934 0 0
8:53 pm 20:53 Clear 97 36.1 38 3.3 13 13 SSW 8 13 29.71 1006 10 16.0934 0 0
9:53 pm 21:53 Clear 95 35 38 3.3 14 14 S 8 13 29.73 1007 10 16.0934 0 0
10:53 pm 22:53 Clear 92 33.3 44 6.7 19 19 S 16 26 29.77 1008 10 16.0934 0 0
11:24 pm 23:24 Mostly Clear 91 33 45 7 20 20 SSW 17 28 29.62 1003 10 16.0934 0 0
11:53 pm 23:53 Clear 92 33.3 43 6.1 18 18 S 14 22 29.77 1008 10 16.0934 0 0

Powered by AerisWeather